createdAt,value
2023-02-17T05:34:21.413Z,100.00
2023-02-17T05:39:23.377Z,100.00
2023-02-17T05:44:25.070Z,100.00
2023-02-17T05:49:29.170Z,100.00
2023-02-17T05:54:30.938Z,100.00
2023-02-17T05:59:32.599Z,100.00
2023-02-17T06:04:34.275Z,100.00
2023-02-17T06:09:35.928Z,100.00
2023-02-17T06:14:37.526Z,100.00
2023-02-17T06:19:39.144Z,100.00
2023-02-17T06:24:40.758Z,100.00
2023-02-17T06:29:42.774Z,100.00
2023-02-17T06:34:44.482Z,100.00
2023-02-17T06:39:46.164Z,100.00
2023-02-17T06:44:48.348Z,100.00
2023-02-17T06:49:50.021Z,100.00
2023-02-17T06:54:51.630Z,100.00
2023-02-17T06:59:53.348Z,100.00
2023-02-17T07:04:55.061Z,100.00
2023-02-17T07:09:56.692Z,100.00
2023-02-17T07:14:58.383Z,100.00
2023-02-17T07:20:00.189Z,100.00
2023-02-17T07:25:01.939Z,100.00
2023-02-17T07:30:04.534Z,100.00
2023-02-17T07:35:06.820Z,100.00
2023-02-17T07:40:08.867Z,100.00
2023-02-17T07:45:10.486Z,100.00
2023-02-17T07:50:12.267Z,100.00
2023-02-17T07:55:13.908Z,100.00
2023-02-17T08:00:16.248Z,100.00
2023-02-17T08:05:17.912Z,100.00
2023-02-17T08:10:38.176Z,100.00
2023-02-17T08:15:39.877Z,100.00
2023-02-17T08:20:41.552Z,100.00
2023-02-17T08:25:43.168Z,100.00
2023-02-17T08:30:44.897Z,100.00
2023-02-17T08:35:46.886Z,100.00
2023-02-17T08:40:48.523Z,99.82
2023-02-17T08:45:50.243Z,100.00
2023-02-17T08:50:52.145Z,96.46
2023-02-17T08:55:53.744Z,95.95
2023-02-17T09:00:55.470Z,94.46
2023-02-17T09:05:58.267Z,94.72
2023-02-17T09:11:00.297Z,95.06
2023-02-17T09:16:02.879Z,93.22
2023-02-17T09:21:10.747Z,95.44
2023-02-17T09:26:14.888Z,99.42
2023-02-17T09:31:24.408Z,100.00
2023-02-17T09:36:28.812Z,98.30
2023-02-17T09:41:36.474Z,97.20
2023-02-17T09:47:00.953Z,96.02
2023-02-17T09:52:27.751Z,97.52
2023-02-17T09:57:41.897Z,97.03
2023-02-17T10:02:56.127Z,96.70
2023-02-17T10:08:31.171Z,94.36
2023-02-17T10:13:42.521Z,93.04
2023-02-17T10:18:50.281Z,91.13
2023-02-17T10:23:52.472Z,92.11
2023-02-17T10:28:59.944Z,92.67
2023-02-17T10:34:04.759Z,92.26
2023-02-17T10:39:15.148Z,93.97
2023-02-17T10:44:21.994Z,95.11
2023-02-17T10:49:39.649Z,95.46
2023-02-17T10:54:54.441Z,96.21
2023-02-17T10:59:57.043Z,96.44
2023-02-17T11:05:00.066Z,97.55
2023-02-17T11:10:17.247Z,97.47
2023-02-17T11:15:22.187Z,97.33
2023-02-17T11:20:23.720Z,97.08
2023-02-17T11:25:28.807Z,96.00
2023-02-17T11:30:34.879Z,95.72
2023-02-17T11:35:36.438Z,96.25
2023-02-17T11:40:38.405Z,97.21
2023-02-17T11:46:02.766Z,97.19
2023-02-17T11:51:10.053Z,95.59
2023-02-17T11:56:18.028Z,96.62
2023-02-17T12:01:28.488Z,96.33
2023-02-17T12:06:39.934Z,96.78
2023-02-17T12:11:59.281Z,98.22
2023-02-17T12:17:47.868Z,97.66
2023-02-17T12:23:44.639Z,95.77
2023-02-17T12:29:25.455Z,94.49
2023-02-17T12:34:34.882Z,93.87
2023-02-17T12:39:52.091Z,92.96
2023-02-17T12:45:03.588Z,92.06
2023-02-17T12:50:28.573Z,91.01
2023-02-17T12:55:48.522Z,90.85
2023-02-17T13:00:59.865Z,90.55
2023-02-17T13:06:01.502Z,90.58
2023-02-17T13:11:12.131Z,90.82
2023-02-17T13:16:14.796Z,90.96
2023-02-17T13:21:24.820Z,91.51
2023-02-17T13:26:33.534Z,89.59
2023-02-17T13:31:52.822Z,86.13
2023-02-17T13:36:55.091Z,85.42
2023-02-17T13:41:59.344Z,82.82
2023-02-17T13:47:06.245Z,84.37
2023-02-17T13:52:11.199Z,84.35
2023-02-17T13:57:42.718Z,84.50
2023-02-17T14:02:50.734Z,86.58
2023-02-17T14:07:56.683Z,89.30
2023-02-17T14:12:58.638Z,89.17
2023-02-17T14:18:00.302Z,88.22
2023-02-17T14:23:14.491Z,88.18
2023-02-17T14:28:27.153Z,88.62
2023-02-17T14:33:29.942Z,89.75
2023-02-17T14:38:37.641Z,91.21
2023-02-17T14:43:39.292Z,92.92
2023-02-17T14:48:41.006Z,95.06
2023-02-17T14:53:42.799Z,97.23
2023-02-17T14:58:44.477Z,98.64
2023-02-17T15:03:46.313Z,100.00
2023-02-17T15:08:51.847Z,100.00
2023-02-17T15:13:54.489Z,100.00
2023-02-17T15:18:56.318Z,100.00
2023-02-17T15:24:00.468Z,100.00
2023-02-17T15:29:02.197Z,100.00
2023-02-17T15:34:09.519Z,100.00
2023-02-17T15:39:17.832Z,100.00
2023-02-17T15:44:40.928Z,100.00
2023-02-17T15:49:43.172Z,100.00
2023-02-17T15:54:46.306Z,100.00
2023-02-17T15:59:48.126Z,100.00
2023-02-17T16:04:49.984Z,100.00
2023-02-17T16:09:52.105Z,100.00
2023-02-17T16:14:54.733Z,100.00
2023-02-17T16:19:56.579Z,100.00
2023-02-17T16:24:58.203Z,100.00
2023-02-17T16:30:01.494Z,100.00
2023-02-17T16:35:03.216Z,100.00
2023-02-17T16:40:17.131Z,100.00
2023-02-17T16:45:21.986Z,100.00
2023-02-17T16:50:29.140Z,100.00
2023-02-17T16:55:33.495Z,100.00
2023-02-17T17:00:36.876Z,100.00
2023-02-17T17:05:39.578Z,100.00
2023-02-17T17:10:41.938Z,100.00
2023-02-17T17:15:45.301Z,100.00
2023-02-17T17:20:47.217Z,100.00
2023-02-17T17:25:48.926Z,100.00
2023-02-17T17:30:50.545Z,100.00
2023-02-17T17:35:53.526Z,100.00
2023-02-17T17:40:57.015Z,100.00
2023-02-17T17:45:58.911Z,100.00
2023-02-17T17:51:00.631Z,100.00
2023-02-17T17:56:02.344Z,100.00
2023-02-17T18:01:04.059Z,100.00
2023-02-17T18:06:08.518Z,100.00
2023-02-17T18:11:11.707Z,100.00
2023-02-17T18:16:13.942Z,100.00
2023-02-17T18:21:16.029Z,100.00
2023-02-17T18:26:19.299Z,100.00
2023-02-17T18:31:21.612Z,100.00
2023-02-17T18:36:25.720Z,100.00
2023-02-17T18:41:29.551Z,100.00
2023-02-17T18:46:33.199Z,100.00
2023-02-17T18:51:35.322Z,100.00
2023-02-17T18:56:37.640Z,100.00
2023-02-17T19:01:41.283Z,100.00
2023-02-17T19:06:43.008Z,100.00
2023-02-17T19:11:44.821Z,100.00
2023-02-17T19:16:46.558Z,100.00
2023-02-17T19:21:48.792Z,100.00
2023-02-17T19:26:51.230Z,100.00
2023-02-17T19:31:53.303Z,100.00
2023-02-17T19:36:55.983Z,100.00
2023-02-17T19:41:57.624Z,100.00
2023-02-17T19:46:59.711Z,100.00
2023-02-17T19:52:01.718Z,100.00
2023-02-17T19:57:03.782Z,100.00
2023-02-17T20:02:05.562Z,100.00
2023-02-17T20:07:07.368Z,100.00
2023-02-17T20:12:09.314Z,100.00
2023-02-17T20:17:12.252Z,100.00
2023-02-17T20:22:14.059Z,100.00
2023-02-17T20:27:15.857Z,100.00
2023-02-17T20:32:17.564Z,99.95
2023-02-17T20:37:19.632Z,99.26
2023-02-17T20:42:21.528Z,98.31
2023-02-17T20:47:23.438Z,98.80
2023-02-17T20:52:25.236Z,98.02
2023-02-17T20:57:27.559Z,97.00
2023-02-17T21:02:30.093Z,97.83
2023-02-17T21:07:32.120Z,97.82
2023-02-17T21:12:33.880Z,96.71
2023-02-17T21:17:36.284Z,97.28
2023-02-17T21:22:38.532Z,96.82
2023-02-17T21:27:40.178Z,97.10
2023-02-17T21:32:42.551Z,95.64
2023-02-17T21:37:44.225Z,95.13
2023-02-17T21:43:04.589Z,94.13
2023-02-17T21:48:07.617Z,94.10
2023-02-17T21:53:09.282Z,93.44
2023-02-17T21:58:10.889Z,93.11
2023-02-17T22:03:12.492Z,92.16
2023-02-17T22:08:14.210Z,91.71
2023-02-17T22:13:15.828Z,92.36
2023-02-17T22:18:17.450Z,92.02
